PWSweather.com
Personal Weather Stations
Station Observations
KCOWOODL7
North Of Dinosaur Center, Woodland Park, CO 80863

North Of Dinosaur CenterWoodland Park, CO 80863

Lat: 38.998056, Lon: -105.050833

Elevation: 8555

Station Type: Ambient WS-2095

Latest ConditionsUpdated 9:45:04 PM MDT Tuesday, Apr 23, 2019
Currently Today's Max Today's Min Today's Average
Temperature 37.8°F3.2°C 54.5°F12.5°C 31.3°F-0.4°C 43.2°F6.2°C
Dew Point 33.4°F0.8°C 38.4°F3.6°C 29.4°F-1.4°C 33.8°F1.0°C
Winds Calm Calm 6.0 mph -9.7 kmh - - 2.6 mph 4.2 kmh
Wind Gusts -- 9.4 mph15.1 kmh - -
Humidity 84% 99% 44% 72%
Pressure 30.10 in1019.3 mb 30.19 in1022.4 mb 30.06 in1017.9 mb -
Hour Temp Dew Point Humidity Winds Wind Gusts Pressure Precip Precip Rate Daily Precip Total
09:45 PM 37.8°F3.2°C 33.4°F0.8°C 84% Calm Calm -- 30.10 in1019.3 mb 0.00 in0.0 mm 0.00 in0.0 mm 0.00 in0.0 mm
09:30 PM 38.7°F3.7°C 34.0°F1.1°C 83% 1.3 mph E2.1 kmh E 2.7 mph4.3 kmh 30.09 in1019.0 mb 0.00 in0.0 mm 0.00 in0.0 mm 0.00 in0.0 mm
09:15 PM 39.4°F4.1°C 34.0°F1.1°C 81% Calm Calm 2.0 mph3.2 kmh 30.09 in1019.0 mb 0.00 in0.0 mm 0.00 in0.0 mm 0.00 in0.0 mm
09:00 PM 40.1°F4.5°C 34.7°F1.5°C 81% 0.7 mph E1.1 kmh E 4.0 mph6.4 kmh 30.09 in1019.0 mb 0.00 in0.0 mm 0.00 in0.0 mm 0.00 in0.0 mm
08:45 PM 40.5°F4.7°C 34.8°F1.6°C 80% 2.0 mph ESE3.2 kmh ESE 3.4 mph5.5 kmh 30.08 in1018.6 mb 0.00 in0.0 mm 0.00 in0.0 mm 0.00 in0.0 mm
08:30 PM 41.2°F5.1°C 34.2°F1.2°C 76% 2.0 mph E3.2 kmh E 4.0 mph6.4 kmh 30.08 in1018.6 mb 0.00 in0.0 mm 0.00 in0.0 mm 0.00 in0.0 mm
08:15 PM 41.7°F5.4°C 34.4°F1.3°C 75% 1.3 mph ESE2.1 kmh ESE 4.0 mph6.4 kmh 30.08 in1018.6 mb 0.00 in0.0 mm 0.00 in0.0 mm 0.00 in0.0 mm
08:00 PM 42.6°F5.9°C 34.6°F1.4°C 73% 2.0 mph SE3.2 kmh SE 6.0 mph9.7 kmh 30.08 in1018.6 mb 0.00 in0.0 mm 0.00 in0.0 mm 0.00 in0.0 mm
07:45 PM 43.7°F6.5°C 34.6°F1.4°C 70% 1.3 mph SE2.1 kmh SE 5.4 mph8.7 kmh 30.08 in1018.6 mb 0.00 in0.0 mm 0.00 in0.0 mm 0.00 in0.0 mm
07:30 PM 45.0°F7.2°C 33.9°F1.1°C 65% 2.7 mph SE4.3 kmh SE 4.7 mph7.6 kmh 30.08 in1018.6 mb 0.00 in0.0 mm 0.00 in0.0 mm 0.00 in0.0 mm
07:15 PM 45.3°F7.4°C 33.9°F1.1°C 64% 2.7 mph SE4.3 kmh SE 6.0 mph9.7 kmh 30.08 in1018.6 mb 0.00 in0.0 mm 0.00 in0.0 mm 0.00 in0.0 mm
07:00 PM 45.3°F7.4°C 33.1°F0.6°C 62% 2.0 mph SE3.2 kmh SE 5.4 mph8.7 kmh 30.07 in1018.3 mb 0.00 in0.0 mm 0.00 in0.0 mm 0.00 in0.0 mm
06:45 PM 46.2°F7.9°C 33.1°F0.6°C 60% 4.0 mph SE6.4 kmh SE 6.7 mph10.8 kmh 30.07 in1018.3 mb 0.00 in0.0 mm 0.00 in0.0 mm 0.00 in0.0 mm
06:30 PM 46.9°F8.3°C 33.4°F0.8°C 59% 4.0 mph SE6.4 kmh SE 5.4 mph8.7 kmh 30.06 in1017.9 mb 0.00 in0.0 mm 0.00 in0.0 mm 0.00 in0.0 mm
06:15 PM 46.9°F8.3°C 32.5°F0.3°C 57% 4.0 mph SE6.4 kmh SE 6.0 mph9.7 kmh 30.07 in1018.3 mb 0.00 in0.0 mm 0.00 in0.0 mm 0.00 in0.0 mm
06:00 PM 48.2°F9.0°C 32.3°F0.2°C 54% 3.4 mph ESE5.5 kmh ESE 8.1 mph13.0 kmh 30.07 in1018.3 mb 0.00 in0.0 mm 0.00 in0.0 mm 0.00 in0.0 mm
05:45 PM 49.1°F9.5°C 32.2°F0.1°C 52% 4.0 mph SE6.4 kmh SE 6.7 mph10.8 kmh 30.07 in1018.3 mb 0.00 in0.0 mm 0.00 in0.0 mm 0.00 in0.0 mm
05:30 PM 49.8°F9.9°C 32.4°F0.2°C 51% 4.7 mph SE7.6 kmh SE 8.7 mph14.0 kmh 30.07 in1018.3 mb 0.00 in0.0 mm 0.00 in0.0 mm 0.00 in0.0 mm
05:15 PM 50.9°F10.5°C 32.9°F0.5°C 50% 5.4 mph SE8.7 kmh SE 9.4 mph15.1 kmh 30.07 in1018.3 mb 0.00 in0.0 mm 0.00 in0.0 mm 0.00 in0.0 mm
05:00 PM 51.3°F10.7°C 34.2°F1.2°C 52% 4.7 mph SE7.6 kmh SE 8.1 mph13.0 kmh 30.08 in1018.6 mb 0.00 in0.0 mm 0.00 in0.0 mm 0.00 in0.0 mm
04:45 PM 49.6°F9.8°C 34.1°F1.2°C 55% 4.7 mph SE7.6 kmh SE 6.7 mph10.8 kmh 30.09 in1019.0 mb 0.00 in0.0 mm 0.00 in0.0 mm 0.00 in0.0 mm
04:30 PM 50.0°F10.0°C 33.1°F0.6°C 52% 5.4 mph ESE8.7 kmh ESE 7.4 mph11.9 kmh 30.08 in1018.6 mb 0.00 in0.0 mm 0.00 in0.0 mm 0.00 in0.0 mm
04:15 PM 52.3°F11.3°C 31.1°F-0.5°C 44% 2.7 mph E4.3 kmh E 6.0 mph9.7 kmh 30.08 in1018.6 mb 0.00 in0.0 mm 0.00 in0.0 mm 0.00 in0.0 mm
04:00 PM 52.0°F11.1°C 33.4°F0.8°C 49% 1.3 mph E2.1 kmh E 8.7 mph14.0 kmh 30.08 in1018.6 mb 0.00 in0.0 mm 0.00 in0.0 mm 0.00 in0.0 mm
03:45 PM 51.4°F10.8°C 33.4°F0.8°C 50% 3.4 mph SE5.5 kmh SE 8.7 mph14.0 kmh 30.08 in1018.6 mb 0.00 in0.0 mm 0.00 in0.0 mm 0.00 in0.0 mm
03:30 PM 52.5°F11.4°C 33.4°F0.8°C 48% 4.0 mph SE6.4 kmh SE 9.4 mph15.1 kmh 30.08 in1018.6 mb 0.00 in0.0 mm 0.00 in0.0 mm 0.00 in0.0 mm
03:15 PM 53.8°F12.1°C 34.6°F1.4°C 48% 3.4 mph ESE5.5 kmh ESE 9.4 mph15.1 kmh 30.08 in1018.6 mb 0.00 in0.0 mm 0.00 in0.0 mm 0.00 in0.0 mm
03:00 PM 53.8°F12.1°C 34.6°F1.4°C 48% 2.7 mph ESE4.3 kmh ESE 9.4 mph15.1 kmh 30.09 in1019.0 mb 0.00 in0.0 mm 0.00 in0.0 mm 0.00 in0.0 mm
02:45 PM 54.5°F12.5°C 36.8°F2.7°C 51% 5.4 mph SE8.7 kmh SE 8.7 mph14.0 kmh 30.08 in1018.6 mb 0.00 in0.0 mm 0.00 in0.0 mm 0.00 in0.0 mm
02:30 PM 53.4°F11.9°C 36.7°F2.6°C 53% 4.0 mph SE6.4 kmh SE 6.7 mph10.8 kmh 30.09 in1019.0 mb 0.00 in0.0 mm 0.00 in0.0 mm 0.00 in0.0 mm
02:15 PM 52.3°F11.3°C 38.4°F3.6°C 59% 2.7 mph SSE4.3 kmh SSE 6.7 mph10.8 kmh 30.09 in1019.0 mb 0.00 in0.0 mm 0.00 in0.0 mm 0.00 in0.0 mm
02:00 PM 49.5°F9.7°C 34.4°F1.3°C 56% 2.7 mph SE4.3 kmh SE 7.4 mph11.9 kmh 30.10 in1019.3 mb 0.00 in0.0 mm 0.00 in0.0 mm 0.00 in0.0 mm
01:45 PM 53.6°F12.0°C 36.4°F2.4°C 52% 4.7 mph SE7.6 kmh SE 7.4 mph11.9 kmh 30.09 in1019.0 mb 0.00 in0.0 mm 0.00 in0.0 mm 0.00 in0.0 mm
01:30 PM 48.7°F9.3°C 29.4°F-1.4°C 47% 4.0 mph SE6.4 kmh SE 7.4 mph11.9 kmh 30.10 in1019.3 mb 0.00 in0.0 mm 0.00 in0.0 mm 0.00 in0.0 mm
01:15 PM 48.2°F9.0°C 30.9°F-0.6°C 51% 3.4 mph SE5.5 kmh SE 8.1 mph13.0 kmh 30.10 in1019.3 mb 0.00 in0.0 mm 0.00 in0.0 mm 0.00 in0.0 mm
01:00 PM 49.5°F9.7°C 31.6°F-0.2°C 50% 4.7 mph SE7.6 kmh SE 7.4 mph11.9 kmh 30.11 in1019.6 mb 0.00 in0.0 mm 0.00 in0.0 mm 0.00 in0.0 mm
12:45 PM 51.3°F10.7°C 33.8°F1.0°C 51% 2.7 mph SE4.3 kmh SE 6.7 mph10.8 kmh 30.10 in1019.3 mb 0.00 in0.0 mm 0.00 in0.0 mm 0.00 in0.0 mm
12:30 PM 49.8°F9.9°C 32.9°F0.5°C 52% 2.7 mph SE4.3 kmh SE 7.4 mph11.9 kmh 30.11 in1019.6 mb 0.00 in0.0 mm 0.00 in0.0 mm 0.00 in0.0 mm
12:15 PM 49.8°F9.9°C 35.2°F1.8°C 57% 2.7 mph SE4.3 kmh SE 6.7 mph10.8 kmh 30.11 in1019.6 mb 0.00 in0.0 mm 0.00 in0.0 mm 0.00 in0.0 mm
12:00 PM 46.6°F8.1°C 34.3°F1.3°C 62% 3.4 mph SE5.5 kmh SE 6.0 mph9.7 kmh 30.13 in1020.3 mb 0.00 in0.0 mm 0.00 in0.0 mm 0.00 in0.0 mm
11:45 AM 46.2°F7.9°C 36.3°F2.4°C 68% 2.7 mph SE4.3 kmh SE 8.7 mph14.0 kmh 30.13 in1020.3 mb 0.00 in0.0 mm 0.00 in0.0 mm 0.00 in0.0 mm
11:30 AM 45.3°F7.4°C 33.9°F1.1°C 64% 6.0 mph SE9.7 kmh SE 8.7 mph14.0 kmh 30.14 in1020.7 mb 0.00 in0.0 mm 0.00 in0.0 mm 0.00 in0.0 mm
11:15 AM 45.5°F7.5°C 35.9°F2.2°C 69% 4.0 mph SE6.4 kmh SE 8.7 mph14.0 kmh 30.14 in1020.7 mb 0.00 in0.0 mm 0.00 in0.0 mm 0.00 in0.0 mm
11:00 AM 43.5°F6.4°C 35.8°F2.1°C 74% 3.4 mph SE5.5 kmh SE 8.7 mph14.0 kmh 30.14 in1020.7 mb 0.00 in0.0 mm 0.00 in0.0 mm 0.00 in0.0 mm
10:45 AM 41.9°F5.5°C 35.6°F2.0°C 78% 6.0 mph SE9.7 kmh SE 8.1 mph13.0 kmh 30.14 in1020.7 mb 0.00 in0.0 mm 0.00 in0.0 mm 0.00 in0.0 mm
10:17 AM 40.5°F4.7°C 35.4°F1.9°C 82% 4.7 mph SE7.6 kmh SE 6.7 mph10.8 kmh 30.14 in1020.7 mb 0.00 in0.0 mm 0.00 in0.0 mm 0.00 in0.0 mm
09:47 AM 39.9°F4.4°C 36.4°F2.4°C 87% 2.0 mph S3.2 kmh S 2.7 mph4.3 kmh 30.14 in1020.7 mb 0.00 in0.0 mm 0.00 in0.0 mm 0.00 in0.0 mm
09:17 AM 38.3°F3.5°C 38.0°F3.3°C 99% 4.0 mph SE6.4 kmh SE 4.7 mph7.6 kmh 30.14 in1020.7 mb 0.00 in0.0 mm 0.00 in0.0 mm 0.00 in0.0 mm
08:47 AM 36.9°F2.7°C 36.1°F2.3°C 97% Calm Calm -- 30.14 in1020.7 mb 0.00 in0.0 mm 0.00 in0.0 mm 0.00 in0.0 mm
08:17 AM 35.8°F2.1°C 35.0°F1.7°C 97% Calm Calm 0.7 mph1.1 kmh 30.14 in1020.7 mb 0.00 in0.0 mm 0.00 in0.0 mm 0.00 in0.0 mm
07:47 AM 33.8°F1.0°C 33.3°F0.7°C 98% Calm Calm -- 30.15 in1021.0 mb 0.00 in0.0 mm 0.00 in0.0 mm 0.00 in0.0 mm
07:17 AM 32.2°F0.1°C 31.9°F-0.1°C 99% Calm Calm -- 30.15 in1021.0 mb 0.00 in0.0 mm 0.00 in0.0 mm 0.00 in0.0 mm
06:47 AM 31.8°F-0.1°C 31.6°F-0.2°C 99% Calm Calm -- 30.14 in1020.7 mb 0.00 in0.0 mm 0.00 in0.0 mm 0.00 in0.0 mm
06:17 AM 31.3°F-0.4°C 31.0°F-0.6°C 99% Calm Calm -- 30.12 in1020.0 mb 0.00 in0.0 mm 0.00 in0.0 mm 0.00 in0.0 mm
05:47 AM 31.8°F-0.1°C 31.6°F-0.2°C 99% Calm Calm -- 30.12 in1020.0 mb 0.00 in0.0 mm 0.00 in0.0 mm 0.00 in0.0 mm
05:17 AM 32.0°F0.0°C 31.8°F-0.1°C 99% 0.7 mph E1.1 kmh E 1.3 mph2.1 kmh 30.12 in1020.0 mb 0.00 in0.0 mm 0.00 in0.0 mm 0.00 in0.0 mm
04:47 AM 32.2°F0.1°C 31.9°F-0.1°C 99% 0.7 mph E1.1 kmh E 1.3 mph2.1 kmh 30.13 in1020.3 mb 0.00 in0.0 mm 0.00 in0.0 mm 0.00 in0.0 mm
04:17 AM 32.4°F0.2°C 32.1°F0.1°C 99% 1.3 mph E2.1 kmh E 2.0 mph3.2 kmh 30.14 in1020.7 mb 0.00 in0.0 mm 0.00 in0.0 mm 0.00 in0.0 mm
03:47 AM 32.5°F0.3°C 32.3°F0.2°C 99% 2.0 mph SE3.2 kmh SE 3.4 mph5.5 kmh 30.14 in1020.7 mb 0.00 in0.0 mm 0.00 in0.0 mm 0.00 in0.0 mm
03:17 AM 32.9°F0.5°C 32.7°F0.4°C 99% 2.0 mph SE3.2 kmh SE 3.4 mph5.5 kmh 30.14 in1020.7 mb 0.00 in0.0 mm 0.00 in0.0 mm 0.00 in0.0 mm
02:47 AM 33.1°F0.6°C 32.8°F0.4°C 99% 2.0 mph SE3.2 kmh SE 2.7 mph4.3 kmh 30.14 in1020.7 mb 0.00 in0.0 mm 0.00 in0.0 mm 0.00 in0.0 mm
02:17 AM 33.6°F0.9°C 33.4°F0.8°C 99% 1.3 mph SE2.1 kmh SE 2.0 mph3.2 kmh 30.16 in1021.3 mb 0.00 in0.0 mm 0.00 in0.0 mm 0.00 in0.0 mm
01:47 AM 33.8°F1.0°C 33.3°F0.7°C 98% 2.0 mph SE3.2 kmh SE 2.7 mph4.3 kmh 30.17 in1021.7 mb 0.00 in0.0 mm 0.00 in0.0 mm 0.00 in0.0 mm
01:17 AM 33.8°F1.0°C 33.3°F0.7°C 98% 3.4 mph E5.5 kmh E 4.0 mph6.4 kmh 30.18 in1022.0 mb 0.00 in0.0 mm 0.00 in0.0 mm 0.00 in0.0 mm
12:47 AM 34.2°F1.2°C 33.7°F0.9°C 98% 1.3 mph S2.1 kmh S 2.0 mph3.2 kmh 30.18 in1022.0 mb 0.00 in0.0 mm 0.00 in0.0 mm 0.00 in0.0 mm
12:17 AM 34.2°F1.2°C 33.7°F0.9°C 98% 2.0 mph SE3.2 kmh SE 3.4 mph5.5 kmh 30.19 in1022.4 mb 0.00 in0.0 mm 0.00 in0.0 mm 0.00 in0.0 mm